
Distance (Route):
Temperature : -50.9°C
Humidity : 1.4%
Pressure : 0hPa| Receiver | Frames | First received | Last received |
|---|---|---|---|
| KE7DJD | 140 | 2026-09-02 23:05:41 | 2026-09-02 23:54:25 |
| Receiver | Date | Latitude | Longitude | Direction | Speed | Altitude | Climb | Temperature | Humidity | Pressure | Voltage | Killtimer | Uptime | BKT | XDATA |
|---|---|---|---|---|---|---|---|---|---|---|---|---|---|---|---|
| KE7DJD | 2026-09-02 23:54:25 | 43.84872 | -115.75631 | 62° | 57km/h | 15028m | 5.2m/s | -50.9°C | 1.4% | 0hPa | 0V | 00:00:00 | 00:00:00 | 00:00:00 | |
| KE7DJD | 2026-09-02 23:54:04 | 43.84706 | -115.75980 | 59° | 62km/h | 14927m | 5.7m/s | -50.7°C | 1.4% | 0hPa | 0V | 00:00:00 | 00:00:00 | 00:00:00 | |
| KE7DJD | 2026-09-02 23:53:44 | 43.84540 | -115.76374 | 57° | 60km/h | 14834m | 3.7m/s | -51.1°C | 1.4% | 0hPa | 0V | 00:00:00 | 00:00:00 | 00:00:00 | |
| KE7DJD | 2026-09-02 23:53:23 | 43.84332 | -115.76784 | 52° | 66km/h | 14742m | 3.1m/s | -51.1°C | 1.4% | 0hPa | 0V | 00:00:00 | 00:00:00 | 00:00:00 | |
| KE7DJD | 2026-09-02 23:53:03 | 43.84105 | -115.77148 | 46° | 71km/h | 14654m | 4.3m/s | -51.3°C | 1.5% | 0hPa | 0V | 00:00:00 | 00:00:00 | 00:00:00 | |
| KE7DJD | 2026-09-02 23:52:42 | 43.83865 | -115.77502 | 51° | 68km/h | 14566m | 4.8m/s | -51.5°C | 1.5% | 0hPa | 0V | 00:00:00 | 00:00:00 | 00:00:00 | |
| KE7DJD | 2026-09-02 23:52:22 | 43.83660 | -115.77861 | 58° | 73km/h | 14478m | 4.3m/s | -51.2°C | 1.5% | 0hPa | 0V | 00:00:00 | 00:00:00 | 00:00:00 | |
| KE7DJD | 2026-09-02 23:52:01 | 43.83458 | -115.78294 | 61° | 77km/h | 14388m | 4.5m/s | -51.1°C | 1.5% | 0hPa | 0V | 00:00:00 | 00:00:00 | 00:00:00 | |
| KE7DJD | 2026-09-02 23:51:40 | 43.83231 | -115.78728 | 51° | 68km/h | 14299m | 3.8m/s | -51.2°C | 1.5% | 0hPa | 0V | 00:00:00 | 00:00:00 | 00:00:00 | |
| KE7DJD | 2026-09-02 23:51:20 | 43.82979 | -115.79128 | 50° | 68km/h | 14216m | 4.6m/s | -51.8°C | 1.7% | 0hPa | 0V | 00:00:00 | 00:00:00 | 00:00:00 | |
| KE7DJD | 2026-09-02 23:51:00 | 43.82755 | -115.79504 | 55° | 73km/h | 14133m | 4.1m/s | -51.4°C | 1.6% | 0hPa | 0V | 00:00:00 | 00:00:00 | 00:00:00 | |
| KE7DJD | 2026-09-02 23:50:40 | 43.82540 | -115.79845 | 45° | 64km/h | 14049m | 3.5m/s | -51.7°C | 1.8% | 0hPa | 0V | 00:00:00 | 00:00:00 | 00:00:00 | |
| KE7DJD | 2026-09-02 23:50:19 | 43.82353 | -115.80167 | 52° | 49km/h | 13956m | 3.9m/s | -51.3°C | 1.8% | 0hPa | 0V | 00:00:00 | 00:00:00 | 00:00:00 | |
| KE7DJD | 2026-09-02 23:49:58 | 43.82186 | -115.80520 | 63° | 58km/h | 13863m | 5.5m/s | -51.4°C | 1.9% | 0hPa | 0V | 00:00:00 | 00:00:00 | 00:00:00 | |
| KE7DJD | 2026-09-02 23:49:37 | 43.82029 | -115.80957 | 72° | 55km/h | 13759m | 4.3m/s | -50.7°C | 1.9% | 0hPa | 0V | 00:00:00 | 00:00:00 | 00:00:00 | |
| KE7DJD | 2026-09-02 23:49:17 | 43.81880 | -115.81467 | 74° | 82km/h | 13656m | 3.7m/s | -50.2°C | 1.9% | 0hPa | 0V | 00:00:00 | 00:00:00 | 00:00:00 | |
| KE7DJD | 2026-09-02 23:48:56 | 43.81734 | -115.81987 | 67° | 82km/h | 13576m | 4.7m/s | -50.1°C | 1.8% | 0hPa | 0V | 00:00:00 | 00:00:00 | 00:00:00 | |
| KE7DJD | 2026-09-02 23:48:36 | 43.81563 | -115.82510 | 69° | 89km/h | 13497m | 3.5m/s | -50.2°C | 1.8% | 0hPa | 0V | 00:00:00 | 00:00:00 | 00:00:00 | |
| KE7DJD | 2026-09-02 23:48:15 | 43.81354 | -115.83126 | 63° | 89km/h | 13422m | 2.3m/s | -50.5°C | 1.9% | 0hPa | 0V | 00:00:00 | 00:00:00 | 00:00:00 | |
| KE7DJD | 2026-09-02 23:47:54 | 43.81124 | -115.83708 | 63° | 88km/h | 13347m | 4.1m/s | -50.2°C | 1.8% | 0hPa | 0V | 00:00:00 | 00:00:00 | 00:00:00 | |
| KE7DJD | 2026-09-02 23:47:34 | 43.80915 | -115.84230 | 60° | 78km/h | 13271m | 4.4m/s | -50.5°C | 2.0% | 0hPa | 0V | 00:00:00 | 00:00:00 | 00:00:00 | |
| KE7DJD | 2026-09-02 23:47:13 | 43.80686 | -115.84766 | 59° | 88km/h | 13196m | 2.6m/s | -50.8°C | 2.2% | 0hPa | 0V | 00:00:00 | 00:00:00 | 00:00:00 | |
| KE7DJD | 2026-09-02 23:46:51 | 43.80466 | -115.85260 | 63° | 80km/h | 13122m | 4.3m/s | -51.2°C | 2.4% | 0hPa | 0V | 00:00:00 | 00:00:00 | 00:00:00 | |
| KE7DJD | 2026-09-02 23:46:31 | 43.80261 | -115.85725 | 59° | 77km/h | 13049m | 4.2m/s | -51.4°C | 2.9% | 0hPa | 0V | 00:00:00 | 00:00:00 | 00:00:00 | |
| KE7DJD | 2026-09-02 23:46:10 | 43.80056 | -115.86210 | 60° | 88km/h | 12971m | 5.1m/s | -51.4°C | 3.0% | 0hPa | 0V | 00:00:00 | 00:00:00 | 00:00:00 | |
| KE7DJD | 2026-09-02 23:45:50 | 43.79830 | -115.86710 | 55° | 88km/h | 12890m | 3.5m/s | -51.7°C | 2.8% | 0hPa | 0V | 00:00:00 | 00:00:00 | 00:00:00 | |
| KE7DJD | 2026-09-02 23:45:29 | 43.79569 | -115.87248 | 56° | 82km/h | 12805m | 4.2m/s | -51.5°C | 3.0% | 0hPa | 0V | 00:00:00 | 00:00:00 | 00:00:00 | |
| KE7DJD | 2026-09-02 23:45:09 | 43.79342 | -115.87723 | 60° | 75km/h | 12719m | 4.5m/s | -51.6°C | 3.3% | 0hPa | 0V | 00:00:00 | 00:00:00 | 00:00:00 | |
| KE7DJD | 2026-09-02 23:44:50 | 43.79146 | -115.88193 | 63° | 77km/h | 12628m | 4.9m/s | -51.0°C | 3.5% | 0hPa | 0V | 00:00:00 | 00:00:00 | 00:00:00 | |
| KE7DJD | 2026-09-02 23:44:28 | 43.78945 | -115.88658 | 61° | 78km/h | 12533m | 4.2m/s | -51.2°C | 4.1% | 0hPa | 0V | 00:00:00 | 00:00:00 | 00:00:00 | |
| KE7DJD | 2026-09-02 23:44:07 | 43.78728 | -115.89146 | 61° | 75km/h | 12436m | 5.5m/s | -51.2°C | 5.2% | 0hPa | 0V | 00:00:00 | 00:00:00 | 00:00:00 | |
| KE7DJD | 2026-09-02 23:43:47 | 43.78538 | -115.89599 | 56° | 73km/h | 12343m | 3.5m/s | -51.5°C | 6.8% | 0hPa | 0V | 00:00:00 | 00:00:00 | 00:00:00 | |
| KE7DJD | 2026-09-02 23:43:27 | 43.78356 | -115.90054 | 63° | 73km/h | 12251m | 3.0m/s | -51.8°C | 8.4% | 0hPa | 0V | 00:00:00 | 00:00:00 | 00:00:00 | |
| KE7DJD | 2026-09-02 23:43:06 | 43.78195 | -115.90561 | 69° | 78km/h | 12158m | 5.4m/s | -51.5°C | 10.7% | 0hPa | 0V | 00:00:00 | 00:00:00 | 00:00:00 | |
| KE7DJD | 2026-09-02 23:42:45 | 43.78020 | -115.91107 | 70° | 86km/h | 12067m | 4.4m/s | -52.3°C | 10.7% | 0hPa | 0V | 00:00:00 | 00:00:00 | 00:00:00 | |
| KE7DJD | 2026-09-02 23:42:25 | 43.77827 | -115.91662 | 70° | 91km/h | 11984m | 4.5m/s | -51.9°C | 9.1% | 0hPa | 0V | 00:00:00 | 00:00:00 | 00:00:00 | |
| KE7DJD | 2026-09-02 23:42:05 | 43.77631 | -115.92238 | 61° | 88km/h | 11908m | 3.3m/s | -52.5°C | 10.1% | 0hPa | 0V | 00:00:00 | 00:00:00 | 00:00:00 | |
| KE7DJD | 2026-09-02 23:41:45 | 43.77423 | -115.92786 | 59° | 84km/h | 11832m | 3.4m/s | -53.3°C | 11.6% | 0hPa | 0V | 00:00:00 | 00:00:00 | 00:00:00 | |
| KE7DJD | 2026-09-02 23:41:24 | 43.77174 | -115.93327 | 59° | 88km/h | 11750m | 3.3m/s | -53.2°C | 13.3% | 0hPa | 0V | 00:00:00 | 00:00:00 | 00:00:00 | |
| KE7DJD | 2026-09-02 23:41:03 | 43.76922 | -115.93873 | 59° | 93km/h | 11674m | 3.9m/s | -53.7°C | 16.0% | 0hPa | 0V | 00:00:00 | 00:00:00 | 00:00:00 | |
| KE7DJD | 2026-09-02 23:40:42 | 43.76650 | -115.94400 | 54° | 86km/h | 11596m | 4.7m/s | -54.7°C | 25.6% | 0hPa | 0V | 00:00:00 | 00:00:00 | 00:00:00 | |
| KE7DJD | 2026-09-02 23:40:21 | 43.76351 | -115.94899 | 49° | 84km/h | 11511m | 5.1m/s | -55.2°C | 39.1% | 0hPa | 0V | 00:00:00 | 00:00:00 | 00:00:00 | |
| KE7DJD | 2026-09-02 23:40:01 | 43.76040 | -115.95373 | 48° | 95km/h | 11429m | 4.1m/s | -55.9°C | 67.3% | 0hPa | 0V | 00:00:00 | 00:00:00 | 00:00:00 | |
| KE7DJD | 2026-09-02 23:39:41 | 43.75699 | -115.95837 | 47° | 86km/h | 11341m | 3.4m/s | -56.4°C | 63.5% | 0hPa | 0V | 00:00:00 | 00:00:00 | 00:00:00 | |
| KE7DJD | 2026-09-02 23:39:21 | 43.75350 | -115.96298 | 48° | 97km/h | 11247m | 4.5m/s | -56.0°C | 58.7% | 0hPa | 0V | 00:00:00 | 00:00:00 | 00:00:00 | |
| KE7DJD | 2026-09-02 23:39:00 | 43.74959 | -115.96780 | 46° | 95km/h | 11141m | 7.3m/s | -55.3°C | 58.6% | 0hPa | 0V | 00:00:00 | 00:00:00 | 00:00:00 | |
| KE7DJD | 2026-09-02 23:38:39 | 43.74605 | -115.97245 | 47° | 86km/h | 11036m | 4.7m/s | -54.4°C | 59.0% | 0hPa | 0V | 00:00:00 | 00:00:00 | 00:00:00 | |
| KE7DJD | 2026-09-02 23:38:19 | 43.74288 | -115.97693 | 46° | 84km/h | 10940m | 4.2m/s | -53.6°C | 60.1% | 0hPa | 0V | 00:00:00 | 00:00:00 | 00:00:00 | |
| KE7DJD | 2026-09-02 23:37:58 | 43.73967 | -115.98145 | 51° | 84km/h | 10843m | 3.5m/s | -52.6°C | 58.5% | 0hPa | 0V | 00:00:00 | 00:00:00 | 00:00:00 | |
| KE7DJD | 2026-09-02 23:37:38 | 43.73676 | -115.98572 | 52° | 88km/h | 10755m | 4.8m/s | -51.9°C | 59.1% | 0hPa | 0V | 00:00:00 | 00:00:00 | 00:00:00 | |
| KE7DJD | 2026-09-02 23:37:18 | 43.73389 | -115.98993 | 41° | 84km/h | 10665m | 4.0m/s | -51.2°C | 63.2% | 0hPa | 0V | 00:00:00 | 00:00:00 | 00:00:00 | |
| KE7DJD | 2026-09-02 23:36:57 | 43.73072 | -115.99409 | 39° | 86km/h | 10570m | 4.4m/s | -50.4°C | 62.2% | 0hPa | 0V | 00:00:00 | 00:00:00 | 00:00:00 | |
| KE7DJD | 2026-09-02 23:36:37 | 43.72750 | -115.99829 | 43° | 86km/h | 10483m | 3.9m/s | -50.2°C | 66.3% | 0hPa | 0V | 00:00:00 | 00:00:00 | 00:00:00 | |
| KE7DJD | 2026-09-02 23:36:17 | 43.72421 | -116.00246 | 46° | 84km/h | 10394m | 5.6m/s | -49.4°C | 67.5% | 0hPa | 0V | 00:00:00 | 00:00:00 | 00:00:00 | |
| KE7DJD | 2026-09-02 23:35:56 | 43.72097 | -116.00674 | 45° | 77km/h | 10304m | 2.9m/s | -48.8°C | 65.6% | 0hPa | 0V | 00:00:00 | 00:00:00 | 00:00:00 | |
| KE7DJD | 2026-09-02 23:35:36 | 43.71783 | -116.01072 | 53° | 86km/h | 10214m | 4.7m/s | -48.0°C | 66.2% | 0hPa | 0V | 00:00:00 | 00:00:00 | 00:00:00 | |
| KE7DJD | 2026-09-02 23:35:16 | 43.71470 | -116.01492 | 45° | 86km/h | 10114m | 6.3m/s | -47.1°C | 65.7% | 0hPa | 0V | 00:00:00 | 00:00:00 | 00:00:00 | |
| KE7DJD | 2026-09-02 23:34:54 | 43.71147 | -116.01890 | 38° | 78km/h | 10005m | 5.3m/s | -46.0°C | 71.1% | 0hPa | 0V | 00:00:00 | 00:00:00 | 00:00:00 | |
| KE7DJD | 2026-09-02 23:34:33 | 43.70816 | -116.02269 | 36° | 75km/h | 9904m | 3.4m/s | -45.1°C | 72.1% | 0hPa | 0V | 00:00:00 | 00:00:00 | 00:00:00 | |
| KE7DJD | 2026-09-02 23:34:13 | 43.70503 | -116.02614 | 42° | 82km/h | 9813m | 4.1m/s | -44.3°C | 72.5% | 0hPa | 0V | 00:00:00 | 00:00:00 | 00:00:00 | |
| KE7DJD | 2026-09-02 23:33:53 | 43.70184 | -116.02986 | 41° | 78km/h | 9716m | 4.7m/s | -43.3°C | 71.8% | 0hPa | 0V | 00:00:00 | 00:00:00 | 00:00:00 | |
| KE7DJD | 2026-09-02 23:33:31 | 43.69862 | -116.03361 | 38° | 77km/h | 9618m | 2.3m/s | -42.5°C | 69.4% | 0hPa | 0V | 00:00:00 | 00:00:00 | 00:00:00 | |
| KE7DJD | 2026-09-02 23:33:11 | 43.69564 | -116.03719 | 39° | 82km/h | 9527m | 4.2m/s | -41.6°C | 67.3% | 0hPa | 0V | 00:00:00 | 00:00:00 | 00:00:00 | |
| KE7DJD | 2026-09-02 23:32:51 | 43.69249 | -116.04083 | 43° | 77km/h | 9428m | 4.0m/s | -40.6°C | 68.2% | 0hPa | 0V | 00:00:00 | 00:00:00 | 00:00:00 | |
| KE7DJD | 2026-09-02 23:32:29 | 43.68941 | -116.04436 | 38° | 78km/h | 9327m | 4.0m/s | -39.8°C | 68.0% | 0hPa | 0V | 00:00:00 | 00:00:00 | 00:00:00 | |
| KE7DJD | 2026-09-02 23:32:08 | 43.68639 | -116.04772 | 42° | 66km/h | 9224m | 5.4m/s | -38.9°C | 68.7% | 0hPa | 0V | 00:00:00 | 00:00:00 | 00:00:00 | |
| KE7DJD | 2026-09-02 23:31:48 | 43.68363 | -116.05093 | 44° | 71km/h | 9129m | 4.2m/s | -38.1°C | 69.6% | 0hPa | 0V | 00:00:00 | 00:00:00 | 00:00:00 | |
| KE7DJD | 2026-09-02 23:31:27 | 43.68061 | -116.05447 | 35° | 71km/h | 9031m | 3.8m/s | -37.3°C | 68.1% | 0hPa | 0V | 00:00:00 | 00:00:00 | 00:00:00 | |
| KE7DJD | 2026-09-02 23:31:07 | 43.67796 | -116.05776 | 43° | 86km/h | 8925m | 4.6m/s | -36.4°C | 68.3% | 0hPa | 0V | 00:00:00 | 00:00:00 | 00:00:00 | |
| KE7DJD | 2026-09-02 23:30:46 | 43.67504 | -116.06111 | 35° | 73km/h | 8825m | 4.2m/s | -35.5°C | 67.9% | 0hPa | 0V | 00:00:00 | 00:00:00 | 00:00:00 | |
| KE7DJD | 2026-09-02 23:30:25 | 43.67227 | -116.06455 | 47° | 73km/h | 8728m | 5.3m/s | -34.8°C | 71.5% | 0hPa | 0V | 00:00:00 | 00:00:00 | 00:00:00 | |
| KE7DJD | 2026-09-02 23:30:05 | 43.66964 | -116.06770 | 44° | 66km/h | 8638m | 4.7m/s | -34.1°C | 71.4% | 0hPa | 0V | 00:00:00 | 00:00:00 | 00:00:00 | |
| KE7DJD | 2026-09-02 23:29:44 | 43.66687 | -116.07104 | 43° | 64km/h | 8537m | 4.5m/s | -33.2°C | 73.0% | 0hPa | 0V | 00:00:00 | 00:00:00 | 00:00:00 | |
| KE7DJD | 2026-09-02 23:29:23 | 43.66435 | -116.07384 | 40° | 53km/h | 8443m | 4.2m/s | -32.5°C | 73.5% | 0hPa | 0V | 00:00:00 | 00:00:00 | 00:00:00 | |
| KE7DJD | 2026-09-02 23:29:02 | 43.66201 | -116.07685 | 39° | 64km/h | 8349m | 5.2m/s | -31.8°C | 71.3% | 0hPa | 0V | 00:00:00 | 00:00:00 | 00:00:00 | |
| KE7DJD | 2026-09-02 23:28:41 | 43.65985 | -116.07979 | 47° | 60km/h | 8242m | 5.6m/s | -30.9°C | 70.8% | 0hPa | 0V | 00:00:00 | 00:00:00 | 00:00:00 | |
| KE7DJD | 2026-09-02 23:28:20 | 43.65775 | -116.08272 | 46° | 58km/h | 8143m | 3.8m/s | -30.1°C | 71.2% | 0hPa | 0V | 00:00:00 | 00:00:00 | 00:00:00 | |
| KE7DJD | 2026-09-02 23:27:59 | 43.65570 | -116.08566 | 43° | 57km/h | 8053m | 3.3m/s | -29.4°C | 72.4% | 0hPa | 0V | 00:00:00 | 00:00:00 | 00:00:00 | |
| KE7DJD | 2026-09-02 23:27:18 | 43.65186 | -116.09126 | 36° | 46km/h | 7864m | 3.3m/s | -28.2°C | 73.8% | 0hPa | 0V | 00:00:00 | 00:00:00 | 00:00:00 | |
| KE7DJD | 2026-09-02 23:26:58 | 43.65027 | -116.09392 | 60° | 47km/h | 7766m | 5.2m/s | -27.7°C | 74.1% | 0hPa | 0V | 00:00:00 | 00:00:00 | 00:00:00 | |
| KE7DJD | 2026-09-02 23:26:37 | 43.64889 | -116.09674 | 55° | 44km/h | 7670m | 5.3m/s | -27.0°C | 75.5% | 0hPa | 0V | 00:00:00 | 00:00:00 | 00:00:00 | |
| KE7DJD | 2026-09-02 23:26:16 | 43.64753 | -116.09967 | 58° | 46km/h | 7574m | 4.2m/s | -26.3°C | 74.8% | 0hPa | 0V | 00:00:00 | 00:00:00 | 00:00:00 | |
| KE7DJD | 2026-09-02 23:25:55 | 43.64632 | -116.10258 | 73° | 58km/h | 7476m | 3.6m/s | -25.6°C | 75.0% | 0hPa | 0V | 00:00:00 | 00:00:00 | 00:00:00 | |
| KE7DJD | 2026-09-02 23:25:34 | 43.64528 | -116.10545 | 73° | 35km/h | 7369m | 4.8m/s | -24.8°C | 75.2% | 0hPa | 0V | 00:00:00 | 00:00:00 | 00:00:00 | |
| KE7DJD | 2026-09-02 23:25:13 | 43.64420 | -116.10822 | 64° | 42km/h | 7268m | 4.2m/s | -23.9°C | 73.5% | 0hPa | 0V | 00:00:00 | 00:00:00 | 00:00:00 | |
| KE7DJD | 2026-09-02 23:24:53 | 43.64311 | -116.11100 | 61° | 47km/h | 7171m | 5.6m/s | -23.2°C | 72.2% | 0hPa | 0V | 00:00:00 | 00:00:00 | 00:00:00 | |
| KE7DJD | 2026-09-02 23:24:33 | 43.64213 | -116.11368 | 60° | 38km/h | 7059m | 4.9m/s | -22.3°C | 70.4% | 0hPa | 0V | 00:00:00 | 00:00:00 | 00:00:00 | |
| KE7DJD | 2026-09-02 23:24:13 | 43.64115 | -116.11618 | 66° | 47km/h | 6959m | 4.7m/s | -21.5°C | 68.3% | 0hPa | 0V | 00:00:00 | 00:00:00 | 00:00:00 | |
| KE7DJD | 2026-09-02 23:23:53 | 43.64029 | -116.11877 | 59° | 40km/h | 6863m | 4.1m/s | -20.8°C | 68.1% | 0hPa | 0V | 00:00:00 | 00:00:00 | 00:00:00 | |
| KE7DJD | 2026-09-02 23:23:33 | 43.63940 | -116.12121 | 60° | 40km/h | 6775m | 4.5m/s | -20.3°C | 72.0% | 0hPa | 0V | 00:00:00 | 00:00:00 | 00:00:00 | |
| KE7DJD | 2026-09-02 23:23:13 | 43.63853 | -116.12385 | 66° | 38km/h | 6685m | 3.3m/s | -19.6°C | 71.6% | 0hPa | 0V | 00:00:00 | 00:00:00 | 00:00:00 | |
| KE7DJD | 2026-09-02 23:22:51 | 43.63754 | -116.12651 | 65° | 38km/h | 6601m | 4.4m/s | -19.0°C | 71.0% | 0hPa | 0V | 00:00:00 | 00:00:00 | 00:00:00 | |
| KE7DJD | 2026-09-02 23:22:31 | 43.63661 | -116.12897 | 72° | 40km/h | 6526m | 3.5m/s | -18.5°C | 72.8% | 0hPa | 0V | 00:00:00 | 00:00:00 | 00:00:00 | |
| KE7DJD | 2026-09-02 23:22:11 | 43.63565 | -116.13148 | 68° | 42km/h | 6455m | 3.7m/s | -18.1°C | 68.7% | 0hPa | 0V | 00:00:00 | 00:00:00 | 00:00:00 | |
| KE7DJD | 2026-09-02 23:21:50 | 43.63468 | -116.13428 | 56° | 42km/h | 6377m | 2.9m/s | -17.6°C | 68.2% | 0hPa | 0V | 00:00:00 | 00:00:00 | 00:00:00 | |
| KE7DJD | 2026-09-02 23:21:30 | 43.63366 | -116.13689 | 68° | 42km/h | 6308m | 2.2m/s | -17.2°C | 70.7% | 0hPa | 0V | 00:00:00 | 00:00:00 | 00:00:00 | |
| KE7DJD | 2026-09-02 23:21:10 | 43.63262 | -116.13933 | 60° | 42km/h | 6238m | 3.1m/s | -16.8°C | 70.4% | 0hPa | 0V | 00:00:00 | 00:00:00 | 00:00:00 | |
| KE7DJD | 2026-09-02 23:20:49 | 43.63157 | -116.14171 | 53° | 40km/h | 6163m | 3.6m/s | -16.3°C | 73.0% | 0hPa | 0V | 00:00:00 | 00:00:00 | 00:00:00 | |
| KE7DJD | 2026-09-02 23:20:28 | 43.63042 | -116.14392 | 61° | 38km/h | 6093m | 3.2m/s | -16.1°C | 76.1% | 0hPa | 0V | 00:00:00 | 00:00:00 | 00:00:00 | |
| KE7DJD | 2026-09-02 23:20:08 | 43.62935 | -116.14579 | 48° | 35km/h | 6024m | 4.0m/s | -15.6°C | 74.6% | 0hPa | 0V | 00:00:00 | 00:00:00 | 00:00:00 | |
| KE7DJD | 2026-09-02 23:19:47 | 43.62829 | -116.14804 | 65° | 37km/h | 5958m | 2.9m/s | -15.3°C | 76.5% | 0hPa | 0V | 00:00:00 | 00:00:00 | 00:00:00 | |
| KE7DJD | 2026-09-02 23:19:26 | 43.62738 | -116.15024 | 64° | 42km/h | 5892m | 2.6m/s | -14.8°C | 75.3% | 0hPa | 0V | 00:00:00 | 00:00:00 | 00:00:00 | |
| KE7DJD | 2026-09-02 23:19:05 | 43.62644 | -116.15253 | 67° | 38km/h | 5820m | 2.2m/s | -14.2°C | 70.7% | 0hPa | 0V | 00:00:00 | 00:00:00 | 00:00:00 | |
| KE7DJD | 2026-09-02 23:18:45 | 43.62558 | -116.15481 | 73° | 35km/h | 5753m | 3.1m/s | -14.2°C | 74.8% | 0hPa | 0V | 00:00:00 | 00:00:00 | 00:00:00 | |
| KE7DJD | 2026-09-02 23:18:25 | 43.62451 | -116.15719 | 58° | 40km/h | 5681m | 4.0m/s | -14.1°C | 86.0% | 0hPa | 0V | 00:00:00 | 00:00:00 | 00:00:00 | |
| KE7DJD | 2026-09-02 23:18:05 | 43.62327 | -116.16002 | 65° | 55km/h | 5601m | 4.0m/s | -14.3°C | 72.9% | 0hPa | 0V | 00:00:00 | 00:00:00 | 00:00:00 | |
| KE7DJD | 2026-09-02 23:17:44 | 43.62178 | -116.16353 | 56° | 55km/h | 5511m | 3.3m/s | -13.7°C | 36.0% | 0hPa | 0V | 00:00:00 | 00:00:00 | 00:00:00 | |
| KE7DJD | 2026-09-02 23:17:23 | 43.62035 | -116.16684 | 67° | 55km/h | 5406m | 5.7m/s | -13.4°C | 28.8% | 0hPa | 0V | 00:00:00 | 00:00:00 | 00:00:00 | |
| KE7DJD | 2026-09-02 23:17:03 | 43.61849 | -116.17034 | 56° | 68km/h | 5298m | 6.7m/s | -12.4°C | 27.6% | 0hPa | 0V | 00:00:00 | 00:00:00 | 00:00:00 | |
| KE7DJD | 2026-09-02 23:16:42 | 43.61654 | -116.17329 | 57° | 57km/h | 5181m | 4.4m/s | -11.7°C | 28.0% | 0hPa | 0V | 00:00:00 | 00:00:00 | 00:00:00 | |
| KE7DJD | 2026-09-02 23:16:21 | 43.61432 | -116.17621 | 48° | 60km/h | 5073m | 4.7m/s | -10.7°C | 25.8% | 0hPa | 0V | 00:00:00 | 00:00:00 | 00:00:00 | |
| KE7DJD | 2026-09-02 23:16:01 | 43.61221 | -116.17892 | 46° | 57km/h | 4973m | 5.0m/s | -9.9°C | 20.4% | 0hPa | 0V | 00:00:00 | 00:00:00 | 00:00:00 | |
| KE7DJD | 2026-09-02 23:15:40 | 43.60982 | -116.18165 | 49° | 66km/h | 4866m | 5.8m/s | -9.1°C | 10.8% | 0hPa | 0V | 00:00:00 | 00:00:00 | 00:00:00 | |
| KE7DJD | 2026-09-02 23:15:19 | 43.60752 | -116.18382 | 29° | 64km/h | 4759m | 5.6m/s | -8.3°C | 8.6% | 0hPa | 0V | 00:00:00 | 00:00:00 | 00:00:00 | |
| KE7DJD | 2026-09-02 23:14:58 | 43.60486 | -116.18605 | 32° | 64km/h | 4639m | 4.5m/s | -7.5°C | 8.3% | 0hPa | 0V | 00:00:00 | 00:00:00 | 00:00:00 | |
| KE7DJD | 2026-09-02 23:14:37 | 43.60223 | -116.18835 | 44° | 55km/h | 4546m | 4.7m/s | -6.8°C | 11.7% | 0hPa | 0V | 00:00:00 | 00:00:00 | 00:00:00 | |
| KE7DJD | 2026-09-02 23:14:16 | 43.59970 | -116.19103 | 39° | 49km/h | 4435m | 4.1m/s | -6.0°C | 16.2% | 0hPa | 0V | 00:00:00 | 00:00:00 | 00:00:00 | |
| KE7DJD | 2026-09-02 23:13:56 | 43.59766 | -116.19324 | 45° | 51km/h | 4346m | 4.9m/s | -5.8°C | 27.4% | 0hPa | 0V | 00:00:00 | 00:00:00 | 00:00:00 | |
| KE7DJD | 2026-09-02 23:13:35 | 43.59587 | -116.19601 | 47° | 55km/h | 4266m | 3.1m/s | -5.2°C | 29.6% | 0hPa | 0V | 00:00:00 | 00:00:00 | 00:00:00 | |
| KE7DJD | 2026-09-02 23:13:14 | 43.59418 | -116.19881 | 62° | 46km/h | 4191m | 3.1m/s | -4.9°C | 29.8% | 0hPa | 0V | 00:00:00 | 00:00:00 | 00:00:00 | |
| KE7DJD | 2026-09-02 23:12:54 | 43.59254 | -116.20123 | 36° | 26km/h | 4085m | 6.0m/s | -6.0°C | 64.9% | 0hPa | 0V | 00:00:00 | 00:00:00 | 00:00:00 | |
| KE7DJD | 2026-09-02 23:12:33 | 43.59075 | -116.20219 | 356° | 35km/h | 3974m | 4.3m/s | -6.1°C | 85.6% | 0hPa | 0V | 00:00:00 | 00:00:00 | 00:00:00 | |
| KE7DJD | 2026-09-02 23:12:13 | 43.58932 | -116.20256 | 344° | 26km/h | 3875m | 3.9m/s | -5.5°C | 89.0% | 0hPa | 0V | 00:00:00 | 00:00:00 | 00:00:00 | |
| KE7DJD | 2026-09-02 23:11:52 | 43.58748 | -116.20255 | 342° | 31km/h | 3750m | 6.9m/s | -4.3°C | 83.5% | 0hPa | 0V | 00:00:00 | 00:00:00 | 00:00:00 | |
| KE7DJD | 2026-09-02 23:11:31 | 43.58594 | -116.20229 | 361° | 16km/h | 3648m | 3.4m/s | -3.3°C | 80.0% | 0hPa | 0V | 00:00:00 | 00:00:00 | 00:00:00 | |
| KE7DJD | 2026-09-02 23:11:10 | 43.58441 | -116.20218 | 334° | 35km/h | 3540m | 5.9m/s | -2.4°C | 75.7% | 0hPa | 0V | 00:00:00 | 00:00:00 | 00:00:00 | |
| KE7DJD | 2026-09-02 23:10:49 | 43.58248 | -116.20175 | 334° | 20km/h | 3446m | 3.2m/s | -1.4°C | 71.7% | 0hPa | 0V | 00:00:00 | 00:00:00 | 00:00:00 | |
| KE7DJD | 2026-09-02 23:10:10 | 43.57966 | -116.20160 | 25° | 29km/h | 3231m | 6.2m/s | 0.6°C | 64.2% | 0hPa | 0V | 00:00:00 | 00:00:00 | 00:00:00 | |
| KE7DJD | 2026-09-02 23:09:48 | 43.57824 | -116.20119 | 333° | 31km/h | 3119m | 4.1m/s | 1.7°C | 60.4% | 0hPa | 0V | 00:00:00 | 00:00:00 | 00:00:00 | |
| KE7DJD | 2026-09-02 23:09:27 | 43.57670 | -116.20126 | 3° | 42km/h | 3021m | 6.2m/s | 2.6°C | 56.9% | 0hPa | 0V | 00:00:00 | 00:00:00 | 00:00:00 | |
| KE7DJD | 2026-09-02 23:09:06 | 43.57524 | -116.20148 | 358° | 38km/h | 2922m | 3.9m/s | 3.5°C | 54.9% | 0hPa | 0V | 00:00:00 | 00:00:00 | 00:00:00 | |
| KE7DJD | 2026-09-02 23:08:46 | 43.57368 | -116.20178 | 347° | 33km/h | 2819m | 4.0m/s | 4.5°C | 52.6% | 0hPa | 0V | 00:00:00 | 00:00:00 | 00:00:00 | |
| KE7DJD | 2026-09-02 23:08:25 | 43.57217 | -116.20197 | 354° | 29km/h | 2713m | 4.6m/s | 5.4°C | 51.0% | 0hPa | 0V | 00:00:00 | 00:00:00 | 00:00:00 | |
| KE7DJD | 2026-09-02 23:08:05 | 43.57123 | -116.20216 | 22° | 13km/h | 2605m | 5.0m/s | 6.2°C | 52.5% | 0hPa | 0V | 00:00:00 | 00:00:00 | 00:00:00 | |
| KE7DJD | 2026-09-02 23:07:44 | 43.57014 | -116.20259 | 49° | 24km/h | 2494m | 5.5m/s | 7.1°C | 52.0% | 0hPa | 0V | 00:00:00 | 00:00:00 | 00:00:00 | |
| KE7DJD | 2026-09-02 23:07:23 | 43.56953 | -116.20347 | 43° | 26km/h | 2387m | 5.2m/s | 8.2°C | 47.4% | 0hPa | 0V | 00:00:00 | 00:00:00 | 00:00:00 | |
| KE7DJD | 2026-09-02 23:06:42 | 43.56883 | -116.20484 | 57° | 18km/h | 2163m | 5.1m/s | 10.4°C | 43.9% | 0hPa | 0V | 00:00:00 | 00:00:00 | 00:00:00 | |
| KE7DJD | 2026-09-02 23:06:22 | 43.56872 | -116.20546 | 86° | 22km/h | 2038m | 5.6m/s | 11.6°C | 41.1% | 0hPa | 0V | 00:00:00 | 00:00:00 | 00:00:00 | |
| KE7DJD | 2026-09-02 23:06:01 | 43.56876 | -116.20605 | 25° | 18km/h | 1914m | 4.7m/s | 12.9°C | 38.3% | 0hPa | 0V | 00:00:00 | 00:00:00 | 00:00:00 | |
| KE7DJD | 2026-09-02 23:05:41 | 43.56852 | -116.20644 | 5° | 15km/h | 1783m | 8.0m/s | 14.1°C | 35.7% | 0hPa | 0V | 00:00:00 | 00:00:00 | 00:00:00 |